createdAt,value
2019-01-26T00:00:47.024Z,89.26
2019-01-26T00:03:49.131Z,89.24
2019-01-26T00:06:51.157Z,89.24
2019-01-26T00:09:55.544Z,89.22
2019-01-26T00:12:57.540Z,89.17
2019-01-26T00:16:02.563Z,89.05
2019-01-26T00:19:04.605Z,88.92
2019-01-26T00:22:06.719Z,88.82
2019-01-26T00:25:11.791Z,88.64
2019-01-26T00:28:17.151Z,88.67
2019-01-26T00:31:22.237Z,88.71
2019-01-26T00:34:24.948Z,88.54
2019-01-26T00:37:28.700Z,88.53
2019-01-26T00:40:32.531Z,88.54
2019-01-26T00:43:36.582Z,88.60
2019-01-26T00:46:38.532Z,88.59
2019-01-26T00:49:43.082Z,88.65
2019-01-26T00:52:49.657Z,88.67
2019-01-26T00:55:54.646Z,88.77
2019-01-26T00:58:56.758Z,88.80
2019-01-26T01:01:58.862Z,88.80
2019-01-26T01:05:03.966Z,88.79
2019-01-26T01:08:06.064Z,88.89
2019-01-26T01:11:08.093Z,88.96
2019-01-26T01:14:13.234Z,89.07
2019-01-26T01:17:15.241Z,89.03
2019-01-26T01:20:19.763Z,89.05
2019-01-26T01:23:23.720Z,89.17
2019-01-26T01:26:25.720Z,89.17
2019-01-26T01:29:27.761Z,89.18
2019-01-26T01:32:32.571Z,89.25
2019-01-26T01:35:39.802Z,89.22
2019-01-26T01:38:41.712Z,89.04
2019-01-26T01:41:43.808Z,88.95
2019-01-26T01:44:46.054Z,88.80
2019-01-26T01:47:48.178Z,88.68
2019-01-26T01:50:53.232Z,88.69
2019-01-26T01:53:55.520Z,88.56
2019-01-26T01:56:59.988Z,88.56
2019-01-26T02:00:02.309Z,88.48
2019-01-26T02:03:04.607Z,88.43
2019-01-26T02:06:06.622Z,88.53
2019-01-26T02:09:08.646Z,88.55
2019-01-26T02:12:10.683Z,88.62
2019-01-26T02:15:13.080Z,88.43
2019-01-26T02:18:15.073Z,88.50
2019-01-26T02:21:17.090Z,88.59
2019-01-26T02:24:22.112Z,88.66
2019-01-26T02:27:28.648Z,88.68
2019-01-26T02:30:30.716Z,88.58
2019-01-26T02:33:33.090Z,88.52
2019-01-26T02:36:35.151Z,88.51
2019-01-26T02:39:38.886Z,88.44
2019-01-26T02:42:40.919Z,88.58
2019-01-26T02:45:43.352Z,88.64
2019-01-26T02:48:45.412Z,88.63
2019-01-26T02:51:47.410Z,88.65
2019-01-26T02:54:52.336Z,88.56
2019-01-26T02:57:54.430Z,88.40
2019-01-26T03:01:03.906Z,88.43
2019-01-26T03:04:06.415Z,88.49
2019-01-26T03:07:08.434Z,88.42
2019-01-26T03:10:12.528Z,88.30
2019-01-26T03:13:16.453Z,88.38
2019-01-26T03:16:18.948Z,88.39
2019-01-26T03:19:21.201Z,88.51
2019-01-26T03:22:23.245Z,88.59
2019-01-26T03:25:25.702Z,88.56
2019-01-26T03:28:27.738Z,88.46
2019-01-26T03:31:30.164Z,88.27
2019-01-26T03:34:36.251Z,88.19
2019-01-26T03:37:42.319Z,88.32
2019-01-26T03:40:44.498Z,88.25
2019-01-26T03:43:47.761Z,88.34
2019-01-26T03:46:49.787Z,88.41
2019-01-26T03:49:53.615Z,88.44
2019-01-26T03:52:55.728Z,88.31
2019-01-26T03:55:57.943Z,88.20
2019-01-26T03:59:02.733Z,88.19
2019-01-26T04:02:04.750Z,88.19
2019-01-26T04:05:08.784Z,88.13
2019-01-26T04:08:10.811Z,88.27
2019-01-26T04:11:14.054Z,88.35
2019-01-26T04:14:16.202Z,88.28
2019-01-26T04:17:21.936Z,88.22
2019-01-26T04:20:24.184Z,88.00
2019-01-26T04:23:26.705Z,87.82
2019-01-26T04:26:28.718Z,87.78
2019-01-26T04:29:30.789Z,87.91
2019-01-26T04:32:32.793Z,87.94
2019-01-26T04:35:35.347Z,87.82
2019-01-26T04:38:37.360Z,87.68
2019-01-26T04:41:40.770Z,87.53
2019-01-26T04:44:43.166Z,87.59
2019-01-26T04:47:45.194Z,87.61
2019-01-26T04:50:47.209Z,87.67
2019-01-26T04:53:49.675Z,87.74
2019-01-26T04:56:52.011Z,87.64
2019-01-26T04:59:54.053Z,87.60
2019-01-26T05:02:56.040Z,87.41
2019-01-26T05:05:59.363Z,87.54
2019-01-26T05:09:01.372Z,87.55
2019-01-26T05:12:03.425Z,87.21
2019-01-26T05:15:06.384Z,87.29
2019-01-26T05:18:08.406Z,87.09
2019-01-26T05:21:15.440Z,87.14
2019-01-26T05:24:17.556Z,87.06
2019-01-26T05:27:21.823Z,87.26
2019-01-26T05:30:27.331Z,87.38
2019-01-26T05:33:29.767Z,87.38
2019-01-26T05:36:31.796Z,87.37
2019-01-26T05:39:36.006Z,87.40
2019-01-26T05:42:38.054Z,87.34
2019-01-26T05:45:40.363Z,87.67
2019-01-26T05:48:42.395Z,87.70
2019-01-26T05:51:44.404Z,87.86
2019-01-26T05:54:46.623Z,87.71
2019-01-26T05:57:48.617Z,87.61
2019-01-26T06:00:50.670Z,87.68
2019-01-26T06:03:52.796Z,87.90
2019-01-26T06:06:54.821Z,88.03
2019-01-26T06:09:56.816Z,88.03
2019-01-26T06:12:59.096Z,88.03
2019-01-26T06:16:01.216Z,88.01
2019-01-26T06:19:04.776Z,87.85
2019-01-26T06:22:06.879Z,87.75
2019-01-26T06:25:10.503Z,87.77
2019-01-26T06:28:13.865Z,87.62
2019-01-26T06:31:16.005Z,87.83
2019-01-26T06:34:21.029Z,87.74
2019-01-26T06:37:23.044Z,87.54
2019-01-26T06:40:25.103Z,87.63
2019-01-26T06:43:27.137Z,87.39
2019-01-26T06:46:30.257Z,87.39
2019-01-26T06:49:34.027Z,87.47
2019-01-26T06:52:38.684Z,87.30
2019-01-26T06:55:40.839Z,87.20
2019-01-26T06:58:42.897Z,86.94
2019-01-26T07:01:46.121Z,86.88
2019-01-26T07:04:53.651Z,86.93
2019-01-26T07:07:55.676Z,86.52
2019-01-26T07:10:57.730Z,86.43
2019-01-26T07:14:01.665Z,86.65
2019-01-26T07:17:03.723Z,86.60
2019-01-26T07:20:07.476Z,86.64
2019-01-26T07:23:09.867Z,86.43
2019-01-26T07:26:11.870Z,86.49
2019-01-26T07:29:15.768Z,86.59
2019-01-26T07:32:18.982Z,86.44
2019-01-26T07:35:21.266Z,86.82
2019-01-26T07:38:23.303Z,87.00
2019-01-26T07:41:25.307Z,86.84
2019-01-26T07:44:27.536Z,86.74
2019-01-26T07:47:29.568Z,86.77
2019-01-26T07:50:31.618Z,86.67
2019-01-26T07:53:33.720Z,86.81
2019-01-26T07:56:38.300Z,87.20
2019-01-26T07:59:40.307Z,87.41
2019-01-26T08:02:42.344Z,87.34
2019-01-26T08:05:44.554Z,87.27
2019-01-26T08:08:48.183Z,87.27
2019-01-26T08:11:52.102Z,87.13
2019-01-26T08:14:58.530Z,87.01
2019-01-26T08:18:00.553Z,86.86
2019-01-26T08:21:02.602Z,86.56
2019-01-26T08:24:04.646Z,86.60
2019-01-26T08:27:06.664Z,86.67
2019-01-26T08:30:19.898Z,86.50
2019-01-26T08:33:24.457Z,86.36
2019-01-26T08:36:26.737Z,86.13
2019-01-26T08:39:29.245Z,85.94
2019-01-26T08:42:33.821Z,85.92
2019-01-26T08:45:37.607Z,85.85
2019-01-26T08:48:41.655Z,85.96
2019-01-26T08:51:43.828Z,85.77
2019-01-26T08:54:46.255Z,85.76
2019-01-26T08:57:48.284Z,85.68
2019-01-26T09:00:50.302Z,85.58
2019-01-26T09:04:15.181Z,85.25
2019-01-26T09:07:17.232Z,85.49
2019-01-26T09:10:22.671Z,85.24
2019-01-26T09:13:24.993Z,85.43
2019-01-26T09:16:27.010Z,85.51
2019-01-26T09:19:29.044Z,85.00
2019-01-26T09:22:33.837Z,85.25
2019-01-26T09:25:36.040Z,85.20
2019-01-26T09:28:39.291Z,84.50
2019-01-26T09:31:43.113Z,84.44
2019-01-26T09:34:48.132Z,84.31
2019-01-26T09:37:50.209Z,84.85
2019-01-26T09:40:52.263Z,85.15
2019-01-26T09:43:55.548Z,85.49
2019-01-26T09:46:57.537Z,85.18
2019-01-26T09:49:59.494Z,85.29
2019-01-26T09:53:05.514Z,85.50
2019-01-26T09:56:07.529Z,84.94
2019-01-26T09:59:10.703Z,85.55
2019-01-26T10:02:12.760Z,85.44
2019-01-26T10:05:15.206Z,85.53
2019-01-26T10:08:20.502Z,85.96
2019-01-26T10:11:22.637Z,85.85
2019-01-26T10:14:26.715Z,85.60
2019-01-26T10:17:32.678Z,85.41
2019-01-26T10:20:35.797Z,85.71
2019-01-26T10:23:38.126Z,85.24
2019-01-26T10:26:41.444Z,85.53
2019-01-26T10:29:44.572Z,85.09
2019-01-26T10:32:46.682Z,84.49
2019-01-26T10:36:17.504Z,84.46
2019-01-26T10:39:20.987Z,83.26
2019-01-26T10:42:30.195Z,83.19
2019-01-26T10:45:34.908Z,82.25
2019-01-26T10:48:37.413Z,82.69
2019-01-26T10:51:39.613Z,82.65
2019-01-26T10:54:41.780Z,82.69
2019-01-26T10:57:43.945Z,83.04
2019-01-26T11:00:45.949Z,82.69
2019-01-26T11:03:48.511Z,82.36
2019-01-26T11:06:50.650Z,82.58
2019-01-26T11:09:53.134Z,82.53
2019-01-26T11:12:57.039Z,82.42
2019-01-26T11:15:59.639Z,83.00
2019-01-26T11:19:07.711Z,83.00
2019-01-26T11:22:10.107Z,83.15
2019-01-26T11:25:17.987Z,83.37
2019-01-26T11:28:21.703Z,83.80
2019-01-26T11:31:23.853Z,83.73
2019-01-26T11:34:27.001Z,83.67
2019-01-26T11:37:31.514Z,83.74
2019-01-26T11:40:35.338Z,83.62
2019-01-26T11:43:39.652Z,83.43
2019-01-26T11:46:54.112Z,83.04
2019-01-26T11:49:58.008Z,82.77
2019-01-26T11:53:00.086Z,82.88
2019-01-26T11:56:07.663Z,83.13
2019-01-26T11:59:09.779Z,83.07
2019-01-26T12:02:36.646Z,82.42
2019-01-26T12:05:52.280Z,82.62
2019-01-26T12:08:54.363Z,82.63
2019-01-26T12:11:56.467Z,83.07
2019-01-26T12:14:58.619Z,81.76
2019-01-26T12:18:00.999Z,81.13
2019-01-26T12:21:03.400Z,80.52
2019-01-26T12:24:08.567Z,80.37
2019-01-26T12:27:10.575Z,80.49
2019-01-26T12:30:12.751Z,79.73
2019-01-26T12:33:14.912Z,80.62
2019-01-26T12:36:19.634Z,80.00
2019-01-26T12:39:24.136Z,80.50
2019-01-26T12:42:26.155Z,80.06
2019-01-26T12:45:28.349Z,79.95
2019-01-26T12:48:30.611Z,79.83
2019-01-26T12:51:35.693Z,80.25
2019-01-26T12:54:40.980Z,79.79
2019-01-26T12:57:42.943Z,79.24
2019-01-26T13:00:45.013Z,79.76
2019-01-26T13:03:47.411Z,79.68
2019-01-26T13:06:49.477Z,79.34
2019-01-26T13:09:54.398Z,79.26
2019-01-26T13:12:59.520Z,79.39
2019-01-26T13:16:01.757Z,78.75
2019-01-26T13:19:03.816Z,79.90
2019-01-26T13:22:05.945Z,78.82
2019-01-26T13:25:09.541Z,79.03
2019-01-26T13:28:12.694Z,78.19
2019-01-26T13:31:15.108Z,78.78
2019-01-26T13:34:17.490Z,78.40
2019-01-26T13:37:19.511Z,78.34
2019-01-26T13:40:24.546Z,77.39
2019-01-26T13:43:29.577Z,77.61
2019-01-26T13:46:34.617Z,77.15
2019-01-26T13:49:36.763Z,76.85
2019-01-26T13:52:38.825Z,77.08
2019-01-26T13:55:41.035Z,76.90
2019-01-26T13:58:43.639Z,77.19
2019-01-26T14:01:45.654Z,77.49
2019-01-26T14:04:48.839Z,77.29
2019-01-26T14:07:51.044Z,77.72
2019-01-26T14:10:53.977Z,77.40
2019-01-26T14:13:56.636Z,78.09
2019-01-26T14:16:58.697Z,78.29
2019-01-26T14:20:00.739Z,79.00
2019-01-26T14:23:04.507Z,78.85
2019-01-26T14:26:06.752Z,78.39
2019-01-26T14:29:08.780Z,78.44
2019-01-26T14:32:10.795Z,79.02
2019-01-26T14:35:12.919Z,78.73
2019-01-26T14:38:16.751Z,78.96
2019-01-26T14:41:18.873Z,78.26
2019-01-26T14:44:20.895Z,78.32
2019-01-26T14:47:24.283Z,78.65
2019-01-26T14:50:27.499Z,78.54
2019-01-26T14:53:30.393Z,78.13
2019-01-26T14:56:32.616Z,78.54
2019-01-26T14:59:39.284Z,78.31
2019-01-26T15:02:41.619Z,77.78
2019-01-26T15:05:44.235Z,78.24
2019-01-26T15:08:46.306Z,77.45
2019-01-26T15:11:50.681Z,77.15
2019-01-26T15:14:53.104Z,77.87
2019-01-26T15:17:59.811Z,78.04
2019-01-26T15:21:02.702Z,78.24
2019-01-26T15:24:04.918Z,78.45
2019-01-26T15:27:09.666Z,78.61
2019-01-26T15:30:15.366Z,78.55
2019-01-26T15:33:17.587Z,77.77
2019-01-26T15:36:20.966Z,78.42
2019-01-26T15:39:23.096Z,78.30
2019-01-26T15:42:25.360Z,78.81
2019-01-26T15:45:29.978Z,78.71
2019-01-26T15:48:32.738Z,78.38
2019-01-26T15:51:39.827Z,78.12
2019-01-26T15:54:45.232Z,78.28
2019-01-26T15:57:47.411Z,77.69
2019-01-26T16:00:53.704Z,78.10
2019-01-26T16:03:55.871Z,78.61
2019-01-26T16:06:58.023Z,78.70
2019-01-26T16:10:00.106Z,78.39
2019-01-26T16:13:02.373Z,78.67
2019-01-26T16:16:08.137Z,78.69
2019-01-26T16:19:10.440Z,78.85
2019-01-26T16:22:12.587Z,79.92
2019-01-26T16:25:15.867Z,80.41
2019-01-26T16:28:17.917Z,80.63
2019-01-26T16:31:20.063Z,80.84
2019-01-26T16:34:23.172Z,81.23
2019-01-26T16:37:25.281Z,81.30
2019-01-26T16:40:29.878Z,81.46
2019-01-26T16:43:32.316Z,81.01
2019-01-26T16:46:34.412Z,80.47
2019-01-26T16:49:36.453Z,79.69
2019-01-26T16:52:41.027Z,80.09
2019-01-26T16:55:44.526Z,79.73
2019-01-26T16:58:49.697Z,79.21
2019-01-26T17:01:51.725Z,80.02
2019-01-26T17:04:53.983Z,80.34
2019-01-26T17:07:58.055Z,80.74
2019-01-26T17:11:00.177Z,80.17
2019-01-26T17:14:02.405Z,80.47
2019-01-26T17:17:04.733Z,80.92
2019-01-26T17:20:20.147Z,80.83
2019-01-26T17:23:24.720Z,80.95
2019-01-26T17:26:27.283Z,81.10
2019-01-26T17:29:30.523Z,81.27
2019-01-26T17:32:37.119Z,81.66
2019-01-26T17:35:40.312Z,81.43
2019-01-26T17:38:44.820Z,82.01
2019-01-26T17:41:47.388Z,81.87
2019-01-26T17:44:49.570Z,81.18
2019-01-26T17:47:52.950Z,81.09
2019-01-26T17:50:55.008Z,80.53
2019-01-26T17:53:59.874Z,80.73
2019-01-26T17:57:01.901Z,80.63
2019-01-26T18:00:12.261Z,80.94
2019-01-26T18:03:15.642Z,81.04
2019-01-26T18:06:20.073Z,80.93
2019-01-26T18:09:23.669Z,80.78
2019-01-26T18:12:25.678Z,80.67
2019-01-26T18:15:32.014Z,80.25
2019-01-26T18:18:34.154Z,80.39
2019-01-26T18:21:36.461Z,80.54
2019-01-26T18:24:41.004Z,80.44
2019-01-26T18:27:44.836Z,80.37
2019-01-26T18:30:49.311Z,81.53
2019-01-26T18:33:56.702Z,82.15
2019-01-26T18:37:00.702Z,83.05
2019-01-26T18:40:04.022Z,83.29
2019-01-26T18:43:06.072Z,83.30
2019-01-26T18:46:10.256Z,83.57
2019-01-26T18:49:14.227Z,83.97
2019-01-26T18:52:16.308Z,84.45
2019-01-26T18:55:18.691Z,84.96
2019-01-26T18:58:37.793Z,85.45
2019-01-26T19:01:42.228Z,85.97
2019-01-26T19:04:49.472Z,85.78
2019-01-26T19:07:54.570Z,85.74
2019-01-26T19:11:01.339Z,86.29
2019-01-26T19:14:14.450Z,86.42
2019-01-26T19:17:19.802Z,86.73
2019-01-26T19:20:29.805Z,87.04
2019-01-26T19:23:36.450Z,86.72
2019-01-26T19:26:43.027Z,86.37
2019-01-26T19:29:46.483Z,86.01
2019-01-26T19:32:51.155Z,85.57
2019-01-26T19:35:53.432Z,85.94
2019-01-26T19:38:58.224Z,86.11
2019-01-26T19:42:00.611Z,86.04
2019-01-26T19:45:03.709Z,86.07
2019-01-26T19:48:07.154Z,86.04
2019-01-26T19:51:12.422Z,86.05
2019-01-26T19:54:23.305Z,85.33
2019-01-26T19:57:29.348Z,85.60
2019-01-26T20:00:33.701Z,85.30
2019-01-26T20:03:36.539Z,85.17
2019-01-26T20:06:42.817Z,84.99
2019-01-26T20:09:44.947Z,85.05
2019-01-26T20:12:53.452Z,84.40
2019-01-26T20:15:58.135Z,84.76
2019-01-26T20:19:02.700Z,84.43
2019-01-26T20:22:07.485Z,84.97
2019-01-26T20:25:10.018Z,85.37
2019-01-26T20:28:12.086Z,85.14
2019-01-26T20:31:14.515Z,84.48
2019-01-26T20:34:19.280Z,84.25
2019-01-26T20:37:31.745Z,83.84
2019-01-26T20:40:33.841Z,84.15
2019-01-26T20:43:39.423Z,84.23
2019-01-26T20:46:46.042Z,83.69
2019-01-26T20:49:49.920Z,84.15
2019-01-26T20:52:53.679Z,84.53
2019-01-26T20:55:56.045Z,84.81
2019-01-26T20:58:58.108Z,85.44
2019-01-26T21:02:01.964Z,85.29
2019-01-26T21:05:07.506Z,85.49
2019-01-26T21:08:09.549Z,85.77
2019-01-26T21:11:12.957Z,85.77
2019-01-26T21:14:15.092Z,84.83
2019-01-26T21:17:18.549Z,84.18
2019-01-26T21:20:24.657Z,83.89
2019-01-26T21:23:26.835Z,84.03
2019-01-26T21:26:31.799Z,83.96
2019-01-26T21:29:33.822Z,83.89
2019-01-26T21:32:35.850Z,83.24
2019-01-26T21:35:37.993Z,84.01
2019-01-26T21:38:40.001Z,84.35
2019-01-26T21:41:42.094Z,83.44
2019-01-26T21:44:45.719Z,83.57
2019-01-26T21:47:47.880Z,83.73
2019-01-26T21:50:49.906Z,83.42
2019-01-26T21:53:52.283Z,83.29
2019-01-26T21:56:54.497Z,83.03
2019-01-26T21:59:56.886Z,82.83
2019-01-26T22:02:59.350Z,82.85
2019-01-26T22:06:02.891Z,82.45
2019-01-26T22:09:08.004Z,82.52
2019-01-26T22:12:10.094Z,82.74
2019-01-26T22:15:15.462Z,82.55
2019-01-26T22:18:17.547Z,81.78
2019-01-26T22:21:19.692Z,82.65
2019-01-26T22:24:21.976Z,82.58
2019-01-26T22:27:24.056Z,82.32
2019-01-26T22:30:31.990Z,82.31
2019-01-26T22:33:34.010Z,82.76
2019-01-26T22:36:36.055Z,83.74
2019-01-26T22:39:38.364Z,83.55
2019-01-26T22:42:40.457Z,84.02
2019-01-26T22:45:42.886Z,83.85
2019-01-26T22:48:47.523Z,84.37
2019-01-26T22:51:53.461Z,84.44
2019-01-26T22:54:56.689Z,84.51
2019-01-26T22:57:58.711Z,84.56
2019-01-26T23:01:20.361Z,84.57
2019-01-26T23:04:52.844Z,84.48
2019-01-26T23:08:02.713Z,85.03
2019-01-26T23:11:28.651Z,84.65
2019-01-26T23:15:07.572Z,84.43
2019-01-26T23:19:03.481Z,84.28
2019-01-26T23:22:35.146Z,84.01
2019-01-26T23:26:03.189Z,84.28
2019-01-26T23:29:54.751Z,84.17
2019-01-26T23:32:57.848Z,83.92
2019-01-26T23:36:01.250Z,83.89
2019-01-26T23:39:07.380Z,84.97
2019-01-26T23:42:09.680Z,84.76
2019-01-26T23:45:13.391Z,85.44
2019-01-26T23:48:17.509Z,85.54
2019-01-26T23:51:22.436Z,84.94
2019-01-26T23:54:26.583Z,84.08
2019-01-26T23:57:28.590Z,84.75
